PWSweather.com
Personal Weather Stations
Station Observations
KCTHAMDEN
Dunbar Hill, Hamden, CT 06514

Dunbar HillHamden, CT 06514

Lat: 41.365437, Lon: -72.956532

Elevation: 200

Station Type: Davis Vantage Pro2+

Latest ConditionsUpdated 9:15:01 PM EDT Thursday, Aug 16, 2018
Currently Today's Max Today's Min Today's Average
Temperature 75.1°F23.9°C 89.5°F31.9°C 69.2°F20.7°C 79.3°F26.3°C
Dew Point 71.6°F22.0°C 75.6°F24.2°C 67.7°F19.8°C 72.0°F22.2°C
Winds Calm Calm 3.1 mph -5.0 kmh - - 0.5 mph 0.8 kmh
Wind Gusts -- 7.0 mph11.3 kmh - -
Humidity 89% 97% 57% 80%
Pressure 30.06 in1017.9 mb 30.06 in1017.9 mb 29.95 in1014.2 mb -
Hour Temp Dew Point Humidity Winds Wind Gusts Pressure Precip Precip Rate Daily Precip Total
09:15 PM 75.1°F23.9°C 71.6°F22.0°C 89% Calm Calm -- 30.06 in1017.9 mb - 0.00 in0.0 mm 0.00 in0.0 mm
09:00 PM 75.6°F24.2°C 72.1°F22.3°C 89% Calm Calm -- 30.06 in1017.9 mb - 0.00 in0.0 mm 0.00 in0.0 mm
08:45 PM 76.1°F24.5°C 72.3°F22.4°C 88% Calm Calm -- 30.06 in1017.9 mb - 0.00 in0.0 mm 0.00 in0.0 mm
08:30 PM 76.7°F24.8°C 72.5°F22.5°C 87% Calm Calm -- 30.05 in1017.6 mb - 0.00 in0.0 mm 0.00 in0.0 mm
08:15 PM 77.4°F25.2°C 72.9°F22.7°C 86% Calm Calm -- 30.04 in1017.3 mb - 0.00 in0.0 mm 0.00 in0.0 mm
08:00 PM 78.1°F25.6°C 73.2°F22.9°C 85% Calm Calm -- 30.04 in1017.3 mb - 0.00 in0.0 mm 0.00 in0.0 mm
07:45 PM 78.8°F26.0°C 73.2°F22.9°C 83% Calm Calm -- 30.04 in1017.3 mb - 0.00 in0.0 mm 0.00 in0.0 mm
07:30 PM 79.5°F26.4°C 73.5°F23.1°C 82% Calm Calm -- 30.03 in1016.9 mb - 0.00 in0.0 mm 0.00 in0.0 mm
07:15 PM 80.2°F26.8°C 74.2°F23.4°C 82% Calm Calm -- 30.03 in1016.9 mb - 0.00 in0.0 mm 0.00 in0.0 mm
07:00 PM 80.8°F27.1°C 74.1°F23.4°C 80% Calm Calm -- 30.03 in1016.9 mb - 0.00 in0.0 mm 0.00 in0.0 mm
06:45 PM 81.8°F27.7°C 74.3°F23.5°C 78% Calm Calm -- 30.02 in1016.6 mb - 0.00 in0.0 mm 0.00 in0.0 mm
06:30 PM 83.0°F28.3°C 73.8°F23.2°C 74% Calm Calm -- 30.02 in1016.6 mb - 0.00 in0.0 mm 0.00 in0.0 mm
06:15 PM 84.4°F29.1°C 74.0°F23.3°C 71% Calm Calm -- 30.02 in1016.6 mb - 0.00 in0.0 mm 0.00 in0.0 mm
06:00 PM 86.2°F30.1°C 75.3°F24.1°C 70% Calm Calm -- 30.02 in1016.6 mb - 0.00 in0.0 mm 0.00 in0.0 mm
05:45 PM 87.6°F30.9°C 74.9°F23.8°C 66% Calm Calm -- 30.02 in1016.6 mb - 0.00 in0.0 mm 0.00 in0.0 mm
05:30 PM 88.6°F31.4°C 74.9°F23.8°C 64% Calm Calm -- 30.02 in1016.6 mb - 0.00 in0.0 mm 0.00 in0.0 mm
05:15 PM 89.1°F31.7°C 75.3°F24.1°C 64% Calm Calm 1.0 mph1.6 kmh 30.02 in1016.6 mb - 0.00 in0.0 mm 0.00 in0.0 mm
05:00 PM 89.2°F31.8°C 74.0°F23.3°C 61% 0.8 mph SSW1.3 kmh SSW 2.0 mph3.2 kmh 30.02 in1016.6 mb - 0.00 in0.0 mm 0.00 in0.0 mm
04:45 PM 89.0°F31.7°C 73.3°F22.9°C 60% Calm Calm -- 30.02 in1016.6 mb - 0.00 in0.0 mm 0.00 in0.0 mm
04:30 PM 89.2°F31.8°C 73.0°F22.8°C 59% 1.4 mph S2.3 kmh S 3.0 mph4.8 kmh 30.02 in1016.6 mb - 0.00 in0.0 mm 0.00 in0.0 mm
04:15 PM 89.5°F31.9°C 73.3°F22.9°C 59% 0.2 mph SW0.3 kmh SW 2.0 mph3.2 kmh 30.02 in1016.6 mb - 0.00 in0.0 mm 0.00 in0.0 mm
04:00 PM 89.4°F31.9°C 72.7°F22.6°C 58% 1.1 mph SW1.8 kmh SW 1.0 mph1.6 kmh 30.02 in1016.6 mb - 0.00 in0.0 mm 0.00 in0.0 mm
03:45 PM 89.4°F31.9°C 74.2°F23.4°C 61% 1.6 mph NNE2.6 kmh NNE 4.0 mph6.4 kmh 30.02 in1016.6 mb - 0.00 in0.0 mm 0.00 in0.0 mm
03:30 PM 89.5°F31.9°C 72.8°F22.7°C 58% 1.2 mph SW1.9 kmh SW 3.0 mph4.8 kmh 30.03 in1016.9 mb - 0.00 in0.0 mm 0.00 in0.0 mm
03:15 PM 89.4°F31.9°C 73.2°F22.9°C 59% 1.5 mph S2.4 kmh S 2.0 mph3.2 kmh 30.03 in1016.9 mb - 0.00 in0.0 mm 0.00 in0.0 mm
03:00 PM 89.2°F31.8°C 73.0°F22.8°C 59% 1.8 mph S2.9 kmh S 5.0 mph8.0 kmh 30.03 in1016.9 mb - 0.00 in0.0 mm 0.00 in0.0 mm
02:45 PM 89.3°F31.8°C 72.1°F22.3°C 57% 0.9 mph SW1.4 kmh SW 2.0 mph3.2 kmh 30.03 in1016.9 mb - 0.00 in0.0 mm 0.00 in0.0 mm
02:30 PM 89.4°F31.9°C 74.6°F23.7°C 62% 0.1 mph N0.2 kmh N 1.0 mph1.6 kmh 30.03 in1016.9 mb - 0.00 in0.0 mm 0.00 in0.0 mm
02:15 PM 88.9°F31.6°C 75.6°F24.2°C 65% 0.5 mph S0.8 kmh S 3.0 mph4.8 kmh 30.03 in1016.9 mb - 0.00 in0.0 mm 0.00 in0.0 mm
02:00 PM 87.9°F31.1°C 73.7°F23.2°C 63% 0.8 mph S1.3 kmh S 5.0 mph8.0 kmh 30.04 in1017.3 mb - 0.00 in0.0 mm 0.00 in0.0 mm
01:45 PM 87.4°F30.8°C 73.3°F22.9°C 63% 0.9 mph SSW1.4 kmh SSW 2.0 mph3.2 kmh 30.03 in1016.9 mb - 0.00 in0.0 mm 0.00 in0.0 mm
01:30 PM 87.5°F30.8°C 71.9°F22.2°C 60% 2.3 mph NE3.7 kmh NE 4.0 mph6.4 kmh 30.03 in1016.9 mb - 0.00 in0.0 mm 0.00 in0.0 mm
01:15 PM 88.0°F31.1°C 71.8°F22.1°C 59% 2.6 mph SW4.2 kmh SW 5.0 mph8.0 kmh 30.03 in1016.9 mb - 0.00 in0.0 mm 0.00 in0.0 mm
01:00 PM 87.7°F30.9°C 74.9°F23.8°C 66% 2.4 mph N3.9 kmh N 7.0 mph11.3 kmh 30.04 in1017.3 mb - 0.00 in0.0 mm 0.00 in0.0 mm
12:45 PM 87.1°F30.6°C 72.0°F22.2°C 61% 1.6 mph S2.6 kmh S 3.0 mph4.8 kmh 30.04 in1017.3 mb - 0.00 in0.0 mm 0.00 in0.0 mm
12:30 PM 86.8°F30.4°C 71.7°F22.1°C 61% 1.1 mph ESE1.8 kmh ESE 6.0 mph9.7 kmh 30.04 in1017.3 mb - 0.00 in0.0 mm 0.00 in0.0 mm
12:15 PM 86.6°F30.3°C 72.0°F22.2°C 62% 1.5 mph SW2.4 kmh SW 3.0 mph4.8 kmh 30.04 in1017.3 mb - 0.00 in0.0 mm 0.00 in0.0 mm
12:00 PM 86.9°F30.5°C 72.3°F22.4°C 62% 1.1 mph ENE1.8 kmh ENE 3.0 mph4.8 kmh 30.04 in1017.3 mb - 0.00 in0.0 mm 0.00 in0.0 mm
11:45 AM 87.2°F30.7°C 74.5°F23.6°C 66% 0.5 mph E0.8 kmh E 2.0 mph3.2 kmh 30.04 in1017.3 mb - 0.00 in0.0 mm 0.00 in0.0 mm
11:30 AM 86.6°F30.3°C 73.8°F23.2°C 66% 2.3 mph ENE3.7 kmh ENE 3.0 mph4.8 kmh 30.04 in1017.3 mb - 0.00 in0.0 mm 0.00 in0.0 mm
11:15 AM 85.9°F29.9°C 75.4°F24.1°C 71% 1.2 mph WSW1.9 kmh WSW 2.0 mph3.2 kmh 30.04 in1017.3 mb - 0.00 in0.0 mm 0.00 in0.0 mm
11:00 AM 85.2°F29.6°C 74.3°F23.5°C 70% 2.6 mph SE4.2 kmh SE 4.0 mph6.4 kmh 30.04 in1017.3 mb - 0.00 in0.0 mm 0.00 in0.0 mm
10:45 AM 84.3°F29.1°C 73.4°F23.0°C 70% 3.1 mph WSW5.0 kmh WSW 5.0 mph8.0 kmh 30.04 in1017.3 mb - 0.00 in0.0 mm 0.00 in0.0 mm
10:30 AM 83.5°F28.6°C 73.5°F23.1°C 72% 0.6 mph NNE1.0 kmh NNE 2.0 mph3.2 kmh 30.04 in1017.3 mb - 0.00 in0.0 mm 0.00 in0.0 mm
10:15 AM 83.2°F28.4°C 75.2°F24.0°C 77% 1.4 mph NNE2.3 kmh NNE 3.0 mph4.8 kmh 30.04 in1017.3 mb - 0.00 in0.0 mm 0.00 in0.0 mm
10:00 AM 82.6°F28.1°C 73.9°F23.3°C 75% 0.5 mph NNE0.8 kmh NNE 2.0 mph3.2 kmh 30.04 in1017.3 mb - 0.00 in0.0 mm 0.00 in0.0 mm
09:45 AM 82.0°F27.8°C 74.5°F23.6°C 78% 0.7 mph WSW1.1 kmh WSW 2.0 mph3.2 kmh 30.03 in1016.9 mb - 0.00 in0.0 mm 0.00 in0.0 mm
09:30 AM 81.3°F27.4°C 74.9°F23.8°C 81% 1.0 mph N1.6 kmh N 2.0 mph3.2 kmh 30.03 in1016.9 mb - 0.00 in0.0 mm 0.00 in0.0 mm
09:15 AM 80.4°F26.9°C 73.3°F22.9°C 79% 0.3 mph N0.5 kmh N 1.0 mph1.6 kmh 30.03 in1016.9 mb - 0.00 in0.0 mm 0.00 in0.0 mm
09:00 AM 79.5°F26.4°C 73.9°F23.3°C 83% 1.1 mph SW1.8 kmh SW 3.0 mph4.8 kmh 30.03 in1016.9 mb - 0.00 in0.0 mm 0.00 in0.0 mm
08:45 AM 78.5°F25.8°C 73.3°F22.9°C 84% 0.6 mph NE1.0 kmh NE 1.0 mph1.6 kmh 30.03 in1016.9 mb - 0.00 in0.0 mm 0.00 in0.0 mm
08:30 AM 77.3°F25.2°C 72.8°F22.7°C 86% 1.2 mph NNE1.9 kmh NNE 6.0 mph9.7 kmh 30.03 in1016.9 mb - 0.00 in0.0 mm 0.00 in0.0 mm
08:15 AM 75.8°F24.3°C 72.4°F22.4°C 89% 0.5 mph N0.8 kmh N 1.0 mph1.6 kmh 30.02 in1016.6 mb - 0.00 in0.0 mm 0.00 in0.0 mm
08:00 AM 74.3°F23.5°C 72.5°F22.5°C 94% 1.2 mph S1.9 kmh S 6.0 mph9.7 kmh 30.02 in1016.6 mb - 0.00 in0.0 mm 0.00 in0.0 mm
07:45 AM 73.1°F22.8°C 71.9°F22.2°C 96% 0.4 mph S0.6 kmh S -- 30.02 in1016.6 mb - 0.00 in0.0 mm 0.00 in0.0 mm
07:30 AM 72.1°F22.3°C 71.2°F21.8°C 97% 0.1 mph S0.2 kmh S -- 30.01 in1016.3 mb - 0.00 in0.0 mm 0.00 in0.0 mm
07:15 AM 71.2°F21.8°C 70.3°F21.3°C 97% Calm Calm -- 30.01 in1016.3 mb - 0.00 in0.0 mm 0.00 in0.0 mm
07:00 AM 70.7°F21.5°C 69.8°F21.0°C 97% 0.3 mph SE0.5 kmh SE -- 30.01 in1016.3 mb - 0.00 in0.0 mm 0.00 in0.0 mm
06:45 AM 70.5°F21.4°C 69.6°F20.9°C 97% Calm Calm -- 30.00 in1015.9 mb - 0.00 in0.0 mm 0.00 in0.0 mm
06:30 AM 70.4°F21.3°C 69.5°F20.8°C 97% 0.2 mph SW0.3 kmh SW 3.0 mph4.8 kmh 30.00 in1015.9 mb - 0.00 in0.0 mm 0.00 in0.0 mm
06:15 AM 70.3°F21.3°C 69.1°F20.6°C 96% Calm Calm -- 29.99 in1015.6 mb - 0.00 in0.0 mm 0.00 in0.0 mm
06:00 AM 70.2°F21.2°C 69.0°F20.6°C 96% Calm Calm -- 29.99 in1015.6 mb - 0.00 in0.0 mm 0.00 in0.0 mm
05:45 AM 70.1°F21.2°C 68.9°F20.5°C 96% Calm Calm -- 29.99 in1015.6 mb - 0.00 in0.0 mm 0.00 in0.0 mm
05:30 AM 69.8°F21.0°C 68.6°F20.3°C 96% Calm Calm -- 29.98 in1015.2 mb - 0.00 in0.0 mm 0.00 in0.0 mm
05:15 AM 69.3°F20.7°C 68.1°F20.1°C 96% 0.1 mph S0.2 kmh S 1.0 mph1.6 kmh 29.98 in1015.2 mb - 0.00 in0.0 mm 0.00 in0.0 mm
05:00 AM 69.2°F20.7°C 67.7°F19.8°C 95% 0.2 mph N0.3 kmh N 1.0 mph1.6 kmh 29.98 in1015.2 mb - 0.00 in0.0 mm 0.00 in0.0 mm
04:45 AM 69.4°F20.8°C 67.9°F19.9°C 95% Calm Calm -- 29.98 in1015.2 mb - 0.00 in0.0 mm 0.00 in0.0 mm
04:30 AM 69.7°F20.9°C 68.2°F20.1°C 95% Calm Calm -- 29.97 in1014.9 mb - 0.00 in0.0 mm 0.00 in0.0 mm
04:15 AM 70.0°F21.1°C 68.2°F20.1°C 94% Calm Calm -- 29.97 in1014.9 mb - 0.00 in0.0 mm 0.00 in0.0 mm
04:00 AM 70.2°F21.2°C 68.4°F20.2°C 94% Calm Calm -- 29.97 in1014.9 mb - 0.00 in0.0 mm 0.00 in0.0 mm
03:45 AM 70.5°F21.4°C 68.7°F20.4°C 94% Calm Calm -- 29.97 in1014.9 mb - 0.00 in0.0 mm 0.00 in0.0 mm
03:30 AM 70.8°F21.6°C 69.0°F20.6°C 94% Calm Calm -- 29.97 in1014.9 mb - 0.00 in0.0 mm 0.00 in0.0 mm
03:15 AM 71.1°F21.7°C 69.3°F20.7°C 94% Calm Calm -- 29.97 in1014.9 mb - 0.00 in0.0 mm 0.00 in0.0 mm
03:00 AM 71.3°F21.8°C 69.5°F20.8°C 94% Calm Calm -- 29.96 in1014.6 mb - 0.00 in0.0 mm 0.00 in0.0 mm
02:45 AM 71.5°F21.9°C 70.0°F21.1°C 95% Calm Calm -- 29.96 in1014.6 mb - 0.00 in0.0 mm 0.00 in0.0 mm
02:30 AM 71.5°F21.9°C 69.7°F20.9°C 94% Calm Calm -- 29.96 in1014.6 mb - 0.00 in0.0 mm 0.00 in0.0 mm
02:15 AM 71.7°F22.1°C 69.9°F21.1°C 94% Calm Calm -- 29.96 in1014.6 mb - 0.00 in0.0 mm 0.00 in0.0 mm
02:00 AM 71.9°F22.2°C 70.1°F21.2°C 94% Calm Calm -- 29.96 in1014.6 mb - 0.00 in0.0 mm 0.00 in0.0 mm
01:45 AM 72.0°F22.2°C 70.2°F21.2°C 94% Calm Calm -- 29.95 in1014.2 mb - 0.00 in0.0 mm 0.00 in0.0 mm
01:30 AM 72.0°F22.2°C 70.2°F21.2°C 94% Calm Calm -- 29.95 in1014.2 mb - 0.00 in0.0 mm 0.00 in0.0 mm
01:15 AM 72.0°F22.2°C 70.2°F21.2°C 94% Calm Calm -- 29.96 in1014.6 mb - 0.00 in0.0 mm 0.00 in0.0 mm
01:00 AM 71.9°F22.2°C 70.1°F21.2°C 94% Calm Calm -- 29.96 in1014.6 mb - 0.00 in0.0 mm 0.00 in0.0 mm
12:45 AM 71.9°F22.2°C 70.1°F21.2°C 94% 0.2 mph SW0.3 kmh SW 1.0 mph1.6 kmh 29.96 in1014.6 mb - 0.00 in0.0 mm 0.00 in0.0 mm
12:30 AM 72.1°F22.3°C 70.3°F21.3°C 94% Calm Calm 1.0 mph1.6 kmh 29.95 in1014.2 mb - 0.00 in0.0 mm 0.00 in0.0 mm
12:15 AM 72.2°F22.3°C 70.4°F21.3°C 94% Calm Calm -- 29.95 in1014.2 mb - 0.00 in0.0 mm 0.00 in0.0 mm
12:00 AM 72.4°F22.4°C 70.3°F21.3°C 93% Calm Calm -- 29.95 in1014.2 mb - 0.00 in0.0 mm 0.00 in0.0 mm